sensor_id;sensor_type;location;lat;lon;timestamp;P1;durP1;ratioP1;P2;durP2;ratioP2
11171;SDS011;5642;50.830;12.082;2023-04-03T00:00:47;0.90;;;0.70;;
11171;SDS011;5642;50.830;12.082;2023-04-03T00:03:15;0.98;;;0.75;;
11171;SDS011;5642;50.830;12.082;2023-04-03T00:05:42;1.27;;;0.60;;
11171;SDS011;5642;50.830;12.082;2023-04-03T00:08:08;0.82;;;0.75;;
11171;SDS011;5642;50.830;12.082;2023-04-03T00:10:36;0.60;;;0.60;;
11171;SDS011;5642;50.830;12.082;2023-04-03T00:13:03;1.05;;;0.60;;
11171;SDS011;5642;50.830;12.082;2023-04-03T00:15:32;1.48;;;0.75;;
11171;SDS011;5642;50.830;12.082;2023-04-03T00:17:58;0.73;;;0.73;;
11171;SDS011;5642;50.830;12.082;2023-04-03T00:20:24;0.95;;;0.80;;
11171;SDS011;5642;50.830;12.082;2023-04-03T00:22:54;0.93;;;0.70;;
11171;SDS011;5642;50.830;12.082;2023-04-03T00:25:21;1.20;;;0.75;;
11171;SDS011;5642;50.830;12.082;2023-04-03T00:27:48;0.88;;;0.88;;
11171;SDS011;5642;50.830;12.082;2023-04-03T00:30:15;1.00;;;0.70;;
11171;SDS011;5642;50.830;12.082;2023-04-03T00:32:43;0.70;;;0.70;;
11171;SDS011;5642;50.830;12.082;2023-04-03T00:35:12;1.15;;;0.70;;
11171;SDS011;5642;50.830;12.082;2023-04-03T00:37:42;0.60;;;0.60;;
11171;SDS011;5642;50.830;12.082;2023-04-03T00:40:10;0.98;;;0.70;;
11171;SDS011;5642;50.830;12.082;2023-04-03T00:42:41;0.80;;;0.80;;
11171;SDS011;5642;50.830;12.082;2023-04-03T00:45:22;1.08;;;0.57;;
11171;SDS011;5642;50.830;12.082;2023-04-03T00:48:00;0.93;;;0.60;;
11171;SDS011;5642;50.830;12.082;2023-04-03T00:50:31;1.23;;;0.75;;
11171;SDS011;5642;50.830;12.082;2023-04-03T00:53:00;0.70;;;0.70;;
11171;SDS011;5642;50.830;12.082;2023-04-03T00:55:27;1.77;;;0.77;;
11171;SDS011;5642;50.830;12.082;2023-04-03T00:57:55;1.13;;;0.80;;
11171;SDS011;5642;50.830;12.082;2023-04-03T01:00:22;1.15;;;0.70;;
11171;SDS011;5642;50.830;12.082;2023-04-03T01:02:50;0.65;;;0.60;;
11171;SDS011;5642;50.830;12.082;2023-04-03T01:05:17;2.22;;;0.88;;
11171;SDS011;5642;50.830;12.082;2023-04-03T01:07:47;0.80;;;0.70;;
11171;SDS011;5642;50.830;12.082;2023-04-03T01:10:17;1.30;;;0.70;;
11171;SDS011;5642;50.830;12.082;2023-04-03T01:12:48;0.63;;;0.60;;
11171;SDS011;5642;50.830;12.082;2023-04-03T01:15:18;0.82;;;0.73;;
11171;SDS011;5642;50.830;12.082;2023-04-03T01:17:53;1.20;;;0.90;;
11171;SDS011;5642;50.830;12.082;2023-04-03T01:25:27;0.83;;;0.80;;
11171;SDS011;5642;50.830;12.082;2023-04-03T01:27:53;0.77;;;0.60;;
11171;SDS011;5642;50.830;12.082;2023-04-03T01:30:20;1.00;;;0.80;;
11171;SDS011;5642;50.830;12.082;2023-04-03T01:32:50;0.65;;;0.65;;
11171;SDS011;5642;50.830;12.082;2023-04-03T01:35:16;0.60;;;0.60;;
11171;SDS011;5642;50.830;12.082;2023-04-03T01:37:43;1.38;;;0.70;;
11171;SDS011;5642;50.830;12.082;2023-04-03T01:40:12;0.82;;;0.70;;
11171;SDS011;5642;50.830;12.082;2023-04-03T01:42:39;1.40;;;0.85;;
11171;SDS011;5642;50.830;12.082;2023-04-03T01:45:05;1.38;;;0.80;;
11171;SDS011;5642;50.830;12.082;2023-04-03T01:47:32;1.00;;;0.68;;
11171;SDS011;5642;50.830;12.082;2023-04-03T01:49:59;0.95;;;0.77;;
11171;SDS011;5642;50.830;12.082;2023-04-03T01:52:25;1.03;;;0.90;;
11171;SDS011;5642;50.830;12.082;2023-04-03T01:54:51;0.68;;;0.68;;
11171;SDS011;5642;50.830;12.082;2023-04-03T01:57:17;0.98;;;0.73;;
11171;SDS011;5642;50.830;12.082;2023-04-03T01:59:43;1.20;;;1.08;;
11171;SDS011;5642;50.830;12.082;2023-04-03T02:02:10;2.08;;;1.17;;
11171;SDS011;5642;50.830;12.082;2023-04-03T02:04:38;1.95;;;0.95;;
11171;SDS011;5642;50.830;12.082;2023-04-03T02:07:04;2.05;;;0.80;;
11171;SDS011;5642;50.830;12.082;2023-04-03T02:09:30;1.52;;;0.88;;
11171;SDS011;5642;50.830;12.082;2023-04-03T02:11:57;0.80;;;0.80;;
11171;SDS011;5642;50.830;12.082;2023-04-03T02:14:23;0.95;;;0.77;;
11171;SDS011;5642;50.830;12.082;2023-04-03T02:16:49;0.73;;;0.68;;
11171;SDS011;5642;50.830;12.082;2023-04-03T02:19:15;1.20;;;0.70;;
11171;SDS011;5642;50.830;12.082;2023-04-03T02:21:41;0.90;;;0.60;;
11171;SDS011;5642;50.830;12.082;2023-04-03T02:24:07;1.75;;;0.93;;
11171;SDS011;5642;50.830;12.082;2023-04-03T02:26:34;1.30;;;0.80;;
11171;SDS011;5642;50.830;12.082;2023-04-03T02:29:00;1.02;;;0.65;;
11171;SDS011;5642;50.830;12.082;2023-04-03T02:31:26;0.70;;;0.70;;
11171;SDS011;5642;50.830;12.082;2023-04-03T02:33:52;0.98;;;0.80;;
11171;SDS011;5642;50.830;12.082;2023-04-03T02:36:18;0.68;;;0.60;;
11171;SDS011;5642;50.830;12.082;2023-04-03T02:38:45;0.88;;;0.70;;
11171;SDS011;5642;50.830;12.082;2023-04-03T02:41:11;1.77;;;0.82;;
11171;SDS011;5642;50.830;12.082;2023-04-03T02:43:41;1.40;;;0.77;;
11171;SDS011;5642;50.830;12.082;2023-04-03T02:46:07;0.70;;;0.70;;
11171;SDS011;5642;50.830;12.082;2023-04-03T02:48:34;0.68;;;0.68;;
11171;SDS011;5642;50.830;12.082;2023-04-03T02:51:00;1.23;;;0.90;;
11171;SDS011;5642;50.830;12.082;2023-04-03T02:53:26;1.10;;;0.70;;
11171;SDS011;5642;50.830;12.082;2023-04-03T02:55:53;1.23;;;1.00;;
11171;SDS011;5642;50.830;12.082;2023-04-03T02:58:19;0.80;;;0.80;;
11171;SDS011;5642;50.830;12.082;2023-04-03T03:00:45;3.13;;;1.08;;
11171;SDS011;5642;50.830;12.082;2023-04-03T03:03:11;1.00;;;0.68;;
11171;SDS011;5642;50.830;12.082;2023-04-03T03:05:39;0.70;;;0.70;;
11171;SDS011;5642;50.830;12.082;2023-04-03T03:08:05;1.33;;;0.70;;
11171;SDS011;5642;50.830;12.082;2023-04-03T03:10:32;0.90;;;0.80;;
11171;SDS011;5642;50.830;12.082;2023-04-03T03:12:58;1.17;;;0.70;;
11171;SDS011;5642;50.830;12.082;2023-04-03T03:15:24;0.93;;;0.93;;
11171;SDS011;5642;50.830;12.082;2023-04-03T03:17:50;0.82;;;0.80;;
11171;SDS011;5642;50.830;12.082;2023-04-03T03:20:16;1.43;;;0.80;;
11171;SDS011;5642;50.830;12.082;2023-04-03T03:22:42;0.70;;;0.70;;
11171;SDS011;5642;50.830;12.082;2023-04-03T03:25:08;0.63;;;0.63;;
11171;SDS011;5642;50.830;12.082;2023-04-03T03:27:34;1.42;;;0.93;;
11171;SDS011;5642;50.830;12.082;2023-04-03T03:30:01;0.93;;;0.77;;
11171;SDS011;5642;50.830;12.082;2023-04-03T03:32:27;0.97;;;0.87;;
11171;SDS011;5642;50.830;12.082;2023-04-03T03:34:53;0.77;;;0.70;;
11171;SDS011;5642;50.830;12.082;2023-04-03T03:37:19;1.33;;;0.97;;
11171;SDS011;5642;50.830;12.082;2023-04-03T03:39:46;1.40;;;0.88;;
11171;SDS011;5642;50.830;12.082;2023-04-03T03:42:15;1.23;;;0.80;;
11171;SDS011;5642;50.830;12.082;2023-04-03T03:44:42;1.38;;;0.88;;
11171;SDS011;5642;50.830;12.082;2023-04-03T03:47:08;0.70;;;0.70;;
11171;SDS011;5642;50.830;12.082;2023-04-03T03:49:36;0.93;;;0.80;;
11171;SDS011;5642;50.830;12.082;2023-04-03T03:52:05;0.80;;;0.80;;
11171;SDS011;5642;50.830;12.082;2023-04-03T03:54:31;1.10;;;0.80;;
11171;SDS011;5642;50.830;12.082;2023-04-03T03:56:57;0.70;;;0.70;;
11171;SDS011;5642;50.830;12.082;2023-04-03T03:59:23;0.90;;;0.90;;
11171;SDS011;5642;50.830;12.082;2023-04-03T04:01:50;0.95;;;0.90;;
11171;SDS011;5642;50.830;12.082;2023-04-03T04:04:16;1.10;;;0.80;;
11171;SDS011;5642;50.830;12.082;2023-04-03T04:06:42;1.33;;;0.70;;
11171;SDS011;5642;50.830;12.082;2023-04-03T04:09:09;0.97;;;0.70;;
11171;SDS011;5642;50.830;12.082;2023-04-03T04:11:35;1.42;;;0.75;;
11171;SDS011;5642;50.830;12.082;2023-04-03T04:14:01;0.60;;;0.60;;
11171;SDS011;5642;50.830;12.082;2023-04-03T04:16:28;1.13;;;0.85;;
11171;SDS011;5642;50.830;12.082;2023-04-03T04:18:55;1.00;;;0.90;;
11171;SDS011;5642;50.830;12.082;2023-04-03T04:21:21;0.97;;;0.90;;
11171;SDS011;5642;50.830;12.082;2023-04-03T04:23:47;1.20;;;0.80;;
11171;SDS011;5642;50.830;12.082;2023-04-03T04:26:14;0.82;;;0.70;;
11171;SDS011;5642;50.830;12.082;2023-04-03T04:28:40;0.80;;;0.80;;
11171;SDS011;5642;50.830;12.082;2023-04-03T04:31:07;1.57;;;1.00;;
11171;SDS011;5642;50.830;12.082;2023-04-03T04:33:32;1.20;;;0.90;;
11171;SDS011;5642;50.830;12.082;2023-04-03T04:35:59;0.83;;;0.70;;
11171;SDS011;5642;50.830;12.082;2023-04-03T04:38:25;0.97;;;0.73;;
11171;SDS011;5642;50.830;12.082;2023-04-03T04:40:51;1.10;;;0.97;;
11171;SDS011;5642;50.830;12.082;2023-04-03T04:43:17;1.00;;;0.80;;
11171;SDS011;5642;50.830;12.082;2023-04-03T04:45:43;1.17;;;0.70;;
11171;SDS011;5642;50.830;12.082;2023-04-03T04:48:09;0.70;;;0.63;;
11171;SDS011;5642;50.830;12.082;2023-04-03T04:50:36;0.80;;;0.80;;
11171;SDS011;5642;50.830;12.082;2023-04-03T04:53:02;0.80;;;0.80;;
11171;SDS011;5642;50.830;12.082;2023-04-03T04:55:29;0.97;;;0.87;;
11171;SDS011;5642;50.830;12.082;2023-04-03T04:57:55;0.90;;;0.73;;
11171;SDS011;5642;50.830;12.082;2023-04-03T05:00:22;1.07;;;0.87;;
11171;SDS011;5642;50.830;12.082;2023-04-03T05:02:48;1.13;;;0.90;;
11171;SDS011;5642;50.830;12.082;2023-04-03T05:05:14;2.00;;;1.03;;
11171;SDS011;5642;50.830;12.082;2023-04-03T05:07:43;1.03;;;0.90;;
11171;SDS011;5642;50.830;12.082;2023-04-03T05:10:10;1.37;;;0.87;;
11171;SDS011;5642;50.830;12.082;2023-04-03T05:12:36;0.97;;;0.97;;
11171;SDS011;5642;50.830;12.082;2023-04-03T05:15:03;0.80;;;0.80;;
11171;SDS011;5642;50.830;12.082;2023-04-03T05:17:30;0.97;;;0.80;;
11171;SDS011;5642;50.830;12.082;2023-04-03T05:19:56;2.37;;;0.93;;
11171;SDS011;5642;50.830;12.082;2023-04-03T05:22:22;1.30;;;0.97;;
11171;SDS011;5642;50.830;12.082;2023-04-03T05:24:48;1.10;;;0.98;;
11171;SDS011;5642;50.830;12.082;2023-04-03T05:27:16;1.20;;;0.87;;
11171;SDS011;5642;50.830;12.082;2023-04-03T05:29:45;0.70;;;0.70;;
11171;SDS011;5642;50.830;12.082;2023-04-03T05:32:14;1.57;;;1.07;;
11171;SDS011;5642;50.830;12.082;2023-04-03T05:34:40;1.07;;;0.90;;
11171;SDS011;5642;50.830;12.082;2023-04-03T05:37:06;1.33;;;0.88;;
11171;SDS011;5642;50.830;12.082;2023-04-03T05:39:32;1.20;;;1.10;;
11171;SDS011;5642;50.830;12.082;2023-04-03T05:41:59;0.80;;;0.80;;
11171;SDS011;5642;50.830;12.082;2023-04-03T05:44:25;0.73;;;0.73;;
11171;SDS011;5642;50.830;12.082;2023-04-03T05:46:51;1.02;;;0.88;;
11171;SDS011;5642;50.830;12.082;2023-04-03T05:49:17;0.85;;;0.80;;
11171;SDS011;5642;50.830;12.082;2023-04-03T05:51:44;1.45;;;1.00;;
11171;SDS011;5642;50.830;12.082;2023-04-03T05:54:12;1.52;;;1.10;;
11171;SDS011;5642;50.830;12.082;2023-04-03T05:56:43;1.23;;;1.08;;
11171;SDS011;5642;50.830;12.082;2023-04-03T05:59:10;1.48;;;1.00;;
11171;SDS011;5642;50.830;12.082;2023-04-03T06:01:37;1.02;;;0.90;;
11171;SDS011;5642;50.830;12.082;2023-04-03T06:04:03;1.52;;;1.02;;
11171;SDS011;5642;50.830;12.082;2023-04-03T06:06:49;1.70;;;1.10;;
11171;SDS011;5642;50.830;12.082;2023-04-03T06:09:18;1.90;;;1.25;;
11171;SDS011;5642;50.830;12.082;2023-04-03T06:11:50;2.15;;;1.23;;
11171;SDS011;5642;50.830;12.082;2023-04-03T06:14:18;1.95;;;1.30;;
11171;SDS011;5642;50.830;12.082;2023-04-03T06:16:44;1.65;;;1.20;;
11171;SDS011;5642;50.830;12.082;2023-04-03T06:19:11;1.10;;;1.00;;
11171;SDS011;5642;50.830;12.082;2023-04-03T06:21:38;2.15;;;1.30;;
11171;SDS011;5642;50.830;12.082;2023-04-03T06:24:05;1.45;;;1.23;;
11171;SDS011;5642;50.830;12.082;2023-04-03T06:26:32;1.95;;;1.08;;
11171;SDS011;5642;50.830;12.082;2023-04-03T06:28:59;1.30;;;1.00;;
11171;SDS011;5642;50.830;12.082;2023-04-03T06:31:26;2.15;;;0.98;;
11171;SDS011;5642;50.830;12.082;2023-04-03T06:33:54;1.10;;;1.00;;
11171;SDS011;5642;50.830;12.082;2023-04-03T06:36:23;1.48;;;1.00;;
11171;SDS011;5642;50.830;12.082;2023-04-03T06:38:50;2.40;;;1.20;;
11171;SDS011;5642;50.830;12.082;2023-04-03T06:41:16;1.33;;;1.05;;
11171;SDS011;5642;50.830;12.082;2023-04-03T06:43:43;2.13;;;1.13;;
11171;SDS011;5642;50.830;12.082;2023-04-03T06:46:14;1.00;;;0.90;;
11171;SDS011;5642;50.830;12.082;2023-04-03T06:48:42;1.17;;;0.98;;
11171;SDS011;5642;50.830;12.082;2023-04-03T06:51:15;1.30;;;1.20;;
11171;SDS011;5642;50.830;12.082;2023-04-03T06:53:44;1.27;;;1.10;;
11171;SDS011;5642;50.830;12.082;2023-04-03T06:56:13;1.52;;;1.00;;
11171;SDS011;5642;50.830;12.082;2023-04-03T06:58:41;1.08;;;0.85;;
11171;SDS011;5642;50.830;12.082;2023-04-03T07:01:14;1.35;;;0.82;;
11171;SDS011;5642;50.830;12.082;2023-04-03T07:03:58;1.50;;;1.10;;
11171;SDS011;5642;50.830;12.082;2023-04-03T07:06:27;1.80;;;1.10;;
11171;SDS011;5642;50.830;12.082;2023-04-03T07:08:54;1.10;;;0.90;;
11171;SDS011;5642;50.830;12.082;2023-04-03T07:11:21;1.13;;;1.00;;
11171;SDS011;5642;50.830;12.082;2023-04-03T07:13:48;1.13;;;1.00;;
11171;SDS011;5642;50.830;12.082;2023-04-03T07:16:14;1.33;;;0.93;;
11171;SDS011;5642;50.830;12.082;2023-04-03T07:18:41;1.13;;;1.02;;
11171;SDS011;5642;50.830;12.082;2023-04-03T07:21:08;1.40;;;0.82;;
11171;SDS011;5642;50.830;12.082;2023-04-03T07:23:35;1.42;;;1.00;;
11171;SDS011;5642;50.830;12.082;2023-04-03T07:26:02;1.85;;;1.08;;
11171;SDS011;5642;50.830;12.082;2023-04-03T07:28:28;1.20;;;0.90;;
11171;SDS011;5642;50.830;12.082;2023-04-03T07:31:02;1.30;;;1.05;;
11171;SDS011;5642;50.830;12.082;2023-04-03T07:33:31;1.00;;;1.00;;
11171;SDS011;5642;50.830;12.082;2023-04-03T07:35:58;1.13;;;1.02;;
11171;SDS011;5642;50.830;12.082;2023-04-03T07:38:25;2.08;;;1.10;;
11171;SDS011;5642;50.830;12.082;2023-04-03T07:40:54;2.53;;;1.33;;
11171;SDS011;5642;50.830;12.082;2023-04-03T07:43:20;1.45;;;1.10;;
11171;SDS011;5642;50.830;12.082;2023-04-03T07:45:48;1.50;;;1.10;;
11171;SDS011;5642;50.830;12.082;2023-04-03T07:48:18;1.15;;;0.95;;
11171;SDS011;5642;50.830;12.082;2023-04-03T07:50:45;1.92;;;1.10;;
11171;SDS011;5642;50.830;12.082;2023-04-03T07:53:11;1.30;;;1.20;;
11171;SDS011;5642;50.830;12.082;2023-04-03T07:55:38;1.23;;;1.00;;
11171;SDS011;5642;50.830;12.082;2023-04-03T07:58:12;1.23;;;0.90;;
11171;SDS011;5642;50.830;12.082;2023-04-03T08:00:40;1.17;;;1.08;;
11171;SDS011;5642;50.830;12.082;2023-04-03T08:03:09;1.60;;;1.05;;
11171;SDS011;5642;50.830;12.082;2023-04-03T08:05:37;1.77;;;1.00;;
11171;SDS011;5642;50.830;12.082;2023-04-03T08:08:04;1.15;;;0.90;;
11171;SDS011;5642;50.830;12.082;2023-04-03T08:10:32;0.80;;;0.80;;
11171;SDS011;5642;50.830;12.082;2023-04-03T08:13:02;1.08;;;0.95;;
11171;SDS011;5642;50.830;12.082;2023-04-03T08:15:29;1.27;;;0.90;;
11171;SDS011;5642;50.830;12.082;2023-04-03T08:17:57;0.88;;;0.82;;
11171;SDS011;5642;50.830;12.082;2023-04-03T08:20:24;0.80;;;0.80;;
11171;SDS011;5642;50.830;12.082;2023-04-03T08:22:51;0.88;;;0.80;;
11171;SDS011;5642;50.830;12.082;2023-04-03T08:25:18;1.67;;;0.65;;
11171;SDS011;5642;50.830;12.082;2023-04-03T08:27:44;0.95;;;0.55;;
11171;SDS011;5642;50.830;12.082;2023-04-03T08:30:11;0.57;;;0.57;;
11171;SDS011;5642;50.830;12.082;2023-04-03T08:32:38;1.00;;;0.60;;
11171;SDS011;5642;50.830;12.082;2023-04-03T08:35:07;0.60;;;0.60;;
11171;SDS011;5642;50.830;12.082;2023-04-03T08:37:37;2.03;;;0.80;;
11171;SDS011;5642;50.830;12.082;2023-04-03T08:40:07;0.82;;;0.60;;
11171;SDS011;5642;50.830;12.082;2023-04-03T08:42:50;1.38;;;0.80;;
11171;SDS011;5642;50.830;12.082;2023-04-03T08:45:46;1.10;;;0.68;;
11171;SDS011;5642;50.830;12.082;2023-04-03T08:48:19;1.42;;;0.70;;
11171;SDS011;5642;50.830;12.082;2023-04-03T08:50:53;1.38;;;0.80;;
11171;SDS011;5642;50.830;12.082;2023-04-03T08:53:28;1.08;;;0.60;;
11171;SDS011;5642;50.830;12.082;2023-04-03T08:55:58;1.15;;;0.82;;
11171;SDS011;5642;50.830;12.082;2023-04-03T08:58:30;0.75;;;0.60;;
11171;SDS011;5642;50.830;12.082;2023-04-03T09:03:50;1.08;;;0.75;;
11171;SDS011;5642;50.830;12.082;2023-04-03T09:06:23;0.65;;;0.57;;
11171;SDS011;5642;50.830;12.082;2023-04-03T09:14:52;1.13;;;0.70;;
11171;SDS011;5642;50.830;12.082;2023-04-03T09:17:33;0.73;;;0.60;;
11171;SDS011;5642;50.830;12.082;2023-04-03T09:20:17;0.57;;;0.57;;
11171;SDS011;5642;50.830;12.082;2023-04-03T09:22:50;0.55;;;0.50;;
11171;SDS011;5642;50.830;12.082;2023-04-03T09:25:20;1.27;;;0.63;;
11171;SDS011;5642;50.830;12.082;2023-04-03T09:27:48;1.17;;;0.68;;
11171;SDS011;5642;50.830;12.082;2023-04-03T09:30:17;0.90;;;0.70;;
11171;SDS011;5642;50.830;12.082;2023-04-03T09:32:46;0.50;;;0.50;;
11171;SDS011;5642;50.830;12.082;2023-04-03T09:35:30;2.25;;;0.50;;
11171;SDS011;5642;50.830;12.082;2023-04-03T09:40:38;1.38;;;0.50;;
11171;SDS011;5642;50.830;12.082;2023-04-03T09:43:25;0.60;;;0.60;;
11171;SDS011;5642;50.830;12.082;2023-04-03T09:45:54;0.40;;;0.40;;
11171;SDS011;5642;50.830;12.082;2023-04-03T09:48:22;0.55;;;0.50;;
11171;SDS011;5642;50.830;12.082;2023-04-03T09:53:30;0.82;;;0.57;;
11171;SDS011;5642;50.830;12.082;2023-04-03T09:55:59;0.50;;;0.50;;
11171;SDS011;5642;50.830;12.082;2023-04-03T10:00:55;0.50;;;0.40;;
11171;SDS011;5642;50.830;12.082;2023-04-03T10:03:27;0.75;;;0.40;;
11171;SDS011;5642;50.830;12.082;2023-04-03T10:05:58;0.98;;;0.40;;
11171;SDS011;5642;50.830;12.082;2023-04-03T10:08:32;0.50;;;0.50;;
11171;SDS011;5642;50.830;12.082;2023-04-03T10:16:24;0.40;;;0.40;;
11171;SDS011;5642;50.830;12.082;2023-04-03T10:19:33;0.38;;;0.38;;
11171;SDS011;5642;50.830;12.082;2023-04-03T10:33:33;0.60;;;0.60;;
11171;SDS011;5642;50.830;12.082;2023-04-03T10:41:56;0.70;;;0.40;;
11171;SDS011;5642;50.830;12.082;2023-04-03T10:58:32;0.70;;;0.70;;
11171;SDS011;5642;50.830;12.082;2023-04-03T11:01:02;1.20;;;0.60;;
11171;SDS011;5642;50.830;12.082;2023-04-03T11:03:44;0.93;;;0.75;;
11171;SDS011;5642;50.830;12.082;2023-04-03T11:06:15;1.17;;;0.80;;
11171;SDS011;5642;50.830;12.082;2023-04-03T11:08:56;0.80;;;0.80;;
11171;SDS011;5642;50.830;12.082;2023-04-03T11:11:29;0.65;;;0.65;;
11171;SDS011;5642;50.830;12.082;2023-04-03T11:14:03;0.50;;;0.50;;
11171;SDS011;5642;50.830;12.082;2023-04-03T11:16:40;0.40;;;0.40;;
11171;SDS011;5642;50.830;12.082;2023-04-03T11:19:16;0.40;;;0.40;;
11171;SDS011;5642;50.830;12.082;2023-04-03T11:21:51;0.63;;;0.50;;
11171;SDS011;5642;50.830;12.082;2023-04-03T11:24:29;0.40;;;0.40;;
11171;SDS011;5642;50.830;12.082;2023-04-03T11:27:00;0.40;;;0.40;;
11171;SDS011;5642;50.830;12.082;2023-04-03T11:29:32;0.38;;;0.22;;
11171;SDS011;5642;50.830;12.082;2023-04-03T11:32:09;0.55;;;0.40;;
11171;SDS011;5642;50.830;12.082;2023-04-03T11:35:02;0.47;;;0.47;;
11171;SDS011;5642;50.830;12.082;2023-04-03T11:37:33;0.95;;;0.35;;
11171;SDS011;5642;50.830;12.082;2023-04-03T11:42:47;0.38;;;0.38;;
11171;SDS011;5642;50.830;12.082;2023-04-03T11:45:35;0.50;;;0.50;;
11171;SDS011;5642;50.830;12.082;2023-04-03T11:51:43;0.50;;;0.43;;
11171;SDS011;5642;50.830;12.082;2023-04-03T12:08:45;0.52;;;0.50;;
11171;SDS011;5642;50.830;12.082;2023-04-03T12:11:31;0.70;;;0.60;;
11171;SDS011;5642;50.830;12.082;2023-04-03T12:30:21;0.55;;;0.50;;
11171;SDS011;5642;50.830;12.082;2023-04-03T12:36:08;0.88;;;0.50;;
11171;SDS011;5642;50.830;12.082;2023-04-03T12:39:16;0.50;;;0.50;;
11171;SDS011;5642;50.830;12.082;2023-04-03T12:48:06;0.60;;;0.60;;
11171;SDS011;5642;50.830;12.082;2023-04-03T12:50:45;0.73;;;0.60;;
11171;SDS011;5642;50.830;12.082;2023-04-03T12:53:21;0.60;;;0.60;;
11171;SDS011;5642;50.830;12.082;2023-04-03T12:55:55;0.60;;;0.60;;
11171;SDS011;5642;50.830;12.082;2023-04-03T12:58:26;0.55;;;0.50;;
11171;SDS011;5642;50.830;12.082;2023-04-03T13:01:00;0.98;;;0.75;;
11171;SDS011;5642;50.830;12.082;2023-04-03T13:03:37;0.70;;;0.50;;
11171;SDS011;5642;50.830;12.082;2023-04-03T13:06:28;1.02;;;0.70;;
11171;SDS011;5642;50.830;12.082;2023-04-03T13:09:00;1.13;;;0.80;;
11171;SDS011;5642;50.830;12.082;2023-04-03T13:11:30;1.05;;;0.70;;
11171;SDS011;5642;50.830;12.082;2023-04-03T13:14:03;0.70;;;0.60;;
11171;SDS011;5642;50.830;12.082;2023-04-03T13:16:52;0.88;;;0.60;;
11171;SDS011;5642;50.830;12.082;2023-04-03T13:19:22;0.82;;;0.82;;
11171;SDS011;5642;50.830;12.082;2023-04-03T13:22:01;0.80;;;0.60;;
11171;SDS011;5642;50.830;12.082;2023-04-03T13:24:31;1.48;;;0.75;;
11171;SDS011;5642;50.830;12.082;2023-04-03T13:27:06;0.75;;;0.65;;
11171;SDS011;5642;50.830;12.082;2023-04-03T13:29:36;0.60;;;0.60;;
11171;SDS011;5642;50.830;12.082;2023-04-03T13:32:06;0.82;;;0.70;;
11171;SDS011;5642;50.830;12.082;2023-04-03T13:34:42;1.40;;;0.55;;
11171;SDS011;5642;50.830;12.082;2023-04-03T13:37:24;0.93;;;0.50;;
11171;SDS011;5642;50.830;12.082;2023-04-03T13:42:28;0.52;;;0.52;;
11171;SDS011;5642;50.830;12.082;2023-04-03T13:45:16;0.98;;;0.70;;
11171;SDS011;5642;50.830;12.082;2023-04-03T13:47:50;0.57;;;0.57;;
11171;SDS011;5642;50.830;12.082;2023-04-03T13:50:19;0.70;;;0.70;;
11171;SDS011;5642;50.830;12.082;2023-04-03T13:52:49;0.80;;;0.63;;
11171;SDS011;5642;50.830;12.082;2023-04-03T13:56:07;0.80;;;0.80;;
11171;SDS011;5642;50.830;12.082;2023-04-03T13:58:37;0.70;;;0.70;;
11171;SDS011;5642;50.830;12.082;2023-04-03T14:01:09;0.68;;;0.57;;
11171;SDS011;5642;50.830;12.082;2023-04-03T14:03:44;3.42;;;0.80;;
11171;SDS011;5642;50.830;12.082;2023-04-03T14:06:15;0.50;;;0.50;;
11171;SDS011;5642;50.830;12.082;2023-04-03T14:08:43;2.08;;;0.60;;
11171;SDS011;5642;50.830;12.082;2023-04-03T14:11:31;0.82;;;0.70;;
11171;SDS011;5642;50.830;12.082;2023-04-03T14:13:58;0.68;;;0.68;;
11171;SDS011;5642;50.830;12.082;2023-04-03T14:16:32;0.77;;;0.60;;
11171;SDS011;5642;50.830;12.082;2023-04-03T14:19:03;0.60;;;0.60;;
11171;SDS011;5642;50.830;12.082;2023-04-03T14:21:32;0.60;;;0.60;;
11171;SDS011;5642;50.830;12.082;2023-04-03T14:23:58;0.60;;;0.60;;
11171;SDS011;5642;50.830;12.082;2023-04-03T14:26:25;0.93;;;0.68;;
11171;SDS011;5642;50.830;12.082;2023-04-03T14:28:53;1.30;;;0.80;;
11171;SDS011;5642;50.830;12.082;2023-04-03T14:31:22;1.63;;;0.60;;
11171;SDS011;5642;50.830;12.082;2023-04-03T14:33:49;0.73;;;0.70;;
11171;SDS011;5642;50.830;12.082;2023-04-03T14:36:34;0.70;;;0.70;;
11171;SDS011;5642;50.830;12.082;2023-04-03T14:39:02;0.65;;;0.65;;
11171;SDS011;5642;50.830;12.082;2023-04-03T14:41:29;0.85;;;0.65;;
11171;SDS011;5642;50.830;12.082;2023-04-03T14:43:56;1.40;;;0.75;;
11171;SDS011;5642;50.830;12.082;2023-04-03T14:46:30;0.60;;;0.60;;
11171;SDS011;5642;50.830;12.082;2023-04-03T14:49:02;0.93;;;0.70;;
11171;SDS011;5642;50.830;12.082;2023-04-03T14:51:35;0.70;;;0.70;;
11171;SDS011;5642;50.830;12.082;2023-04-03T14:54:05;0.55;;;0.55;;
11171;SDS011;5642;50.830;12.082;2023-04-03T14:56:38;0.85;;;0.73;;
11171;SDS011;5642;50.830;12.082;2023-04-03T14:59:08;0.63;;;0.60;;
11171;SDS011;5642;50.830;12.082;2023-04-03T15:01:38;0.93;;;0.73;;
11171;SDS011;5642;50.830;12.082;2023-04-03T15:04:16;0.95;;;0.82;;
11171;SDS011;5642;50.830;12.082;2023-04-03T15:06:47;0.70;;;0.70;;
11171;SDS011;5642;50.830;12.082;2023-04-03T15:09:21;0.90;;;0.75;;
11171;SDS011;5642;50.830;12.082;2023-04-03T15:11:49;1.00;;;0.70;;
11171;SDS011;5642;50.830;12.082;2023-04-03T15:14:17;0.57;;;0.57;;
11171;SDS011;5642;50.830;12.082;2023-04-03T15:16:45;0.70;;;0.70;;
11171;SDS011;5642;50.830;12.082;2023-04-03T15:19:11;0.95;;;0.75;;
11171;SDS011;5642;50.830;12.082;2023-04-03T15:21:39;0.75;;;0.75;;
11171;SDS011;5642;50.830;12.082;2023-04-03T15:24:12;1.00;;;0.60;;
11171;SDS011;5642;50.830;12.082;2023-04-03T15:26:40;0.90;;;0.90;;
11171;SDS011;5642;50.830;12.082;2023-04-03T15:29:08;0.85;;;0.80;;
11171;SDS011;5642;50.830;12.082;2023-04-03T15:31:37;0.80;;;0.80;;
11171;SDS011;5642;50.830;12.082;2023-04-03T15:34:05;1.10;;;0.80;;
11171;SDS011;5642;50.830;12.082;2023-04-03T15:36:33;0.88;;;0.88;;
11171;SDS011;5642;50.830;12.082;2023-04-03T15:39:00;0.95;;;0.80;;
11171;SDS011;5642;50.830;12.082;2023-04-03T15:41:27;1.17;;;0.80;;
11171;SDS011;5642;50.830;12.082;2023-04-03T15:43:55;1.08;;;0.90;;
11171;SDS011;5642;50.830;12.082;2023-04-03T15:46:21;0.70;;;0.70;;
11171;SDS011;5642;50.830;12.082;2023-04-03T15:48:47;1.20;;;0.90;;
11171;SDS011;5642;50.830;12.082;2023-04-03T15:51:15;1.27;;;1.00;;
11171;SDS011;5642;50.830;12.082;2023-04-03T15:53:41;1.02;;;0.93;;
11171;SDS011;5642;50.830;12.082;2023-04-03T15:56:07;1.50;;;1.10;;
11171;SDS011;5642;50.830;12.082;2023-04-03T15:58:35;1.35;;;1.10;;
11171;SDS011;5642;50.830;12.082;2023-04-03T16:01:01;1.17;;;0.85;;
11171;SDS011;5642;50.830;12.082;2023-04-03T16:03:27;1.50;;;1.17;;
11171;SDS011;5642;50.830;12.082;2023-04-03T16:05:53;0.80;;;0.80;;
11171;SDS011;5642;50.830;12.082;2023-04-03T16:08:20;1.27;;;1.05;;
11171;SDS011;5642;50.830;12.082;2023-04-03T16:10:47;1.10;;;1.00;;
11171;SDS011;5642;50.830;12.082;2023-04-03T16:13:13;1.85;;;1.20;;
11171;SDS011;5642;50.830;12.082;2023-04-03T16:15:41;1.08;;;0.90;;
11171;SDS011;5642;50.830;12.082;2023-04-03T16:18:07;1.75;;;1.10;;
11171;SDS011;5642;50.830;12.082;2023-04-03T16:20:35;1.63;;;1.10;;
11171;SDS011;5642;50.830;12.082;2023-04-03T16:23:02;2.22;;;1.23;;
11171;SDS011;5642;50.830;12.082;2023-04-03T16:25:28;1.00;;;1.00;;
11171;SDS011;5642;50.830;12.082;2023-04-03T16:27:56;1.42;;;1.10;;
11171;SDS011;5642;50.830;12.082;2023-04-03T16:30:23;1.48;;;1.10;;
11171;SDS011;5642;50.830;12.082;2023-04-03T16:32:52;0.80;;;0.80;;
11171;SDS011;5642;50.830;12.082;2023-04-03T16:35:19;0.85;;;0.82;;
11171;SDS011;5642;50.830;12.082;2023-04-03T16:37:45;1.15;;;0.70;;
11171;SDS011;5642;50.830;12.082;2023-04-03T16:40:11;1.13;;;0.75;;
11171;SDS011;5642;50.830;12.082;2023-04-03T16:42:38;1.30;;;0.88;;
11171;SDS011;5642;50.830;12.082;2023-04-03T16:45:05;1.23;;;1.00;;
11171;SDS011;5642;50.830;12.082;2023-04-03T16:47:32;0.75;;;0.75;;
11171;SDS011;5642;50.830;12.082;2023-04-03T16:50:00;0.80;;;0.80;;